EWG31AP EKCH-EDDL
Flight info
| Callsign | EWG31AP |
|---|---|
| Flight time | 1h 4m |
| Altitude | 38000 |
| Route | NEXEN T503 GIMRU DCT MICOS DCT KEGAB DCT DENOL T851 HALME |
| Aircraft | A320/M-SDE3FGHIRWY/LB1 |
Departure
| Time | 2026-05-04 18:03 |
|---|---|
| Airport | Copenhagen Kastrup Airport (EKCH) |
Arrival
| Time | 2026-05-04 19:07 |
|---|---|
| Airport | Düsseldorf Airport (EDDL) |
| Time | Latitude | Longitude | Altitude | Speed | Heading |
|---|---|---|---|---|---|
| 2026-05-04 17:30 | 55.62722 | 12.64093 | 24 ft | 0 kts | 33° |
| 2026-05-04 17:51 | 55.62721 | 12.64092 | 24 ft | 1 kts | 33° |
| 2026-05-04 17:51 | 55.62700 | 12.64068 | 26 ft | 4 kts | 33° |
| 2026-05-04 17:52 | 55.62685 | 12.64050 | 24 ft | 4 kts | 21° |
| 2026-05-04 17:52 | 55.62667 | 12.64044 | 26 ft | 4 kts | 340° |
| 2026-05-04 17:52 | 55.62652 | 12.64062 | 26 ft | 0 kts | 303° |
| 2026-05-04 17:52 | 55.62663 | 12.64033 | 26 ft | 4 kts | 303° |
| 2026-05-04 17:53 | 55.62670 | 12.64014 | 25 ft | 0 kts | 303° |
| 2026-05-04 17:55 | 55.62671 | 12.64011 | 24 ft | 2 kts | 303° |
| 2026-05-04 17:55 | 55.62683 | 12.63979 | 25 ft | 5 kts | 303° |
| 2026-05-04 17:56 | 55.62704 | 12.63913 | 24 ft | 7 kts | 286° |
| 2026-05-04 17:56 | 55.62676 | 12.63847 | 24 ft | 7 kts | 194° |
| 2026-05-04 17:56 | 55.62642 | 12.63890 | 24 ft | 6 kts | 126° |
| 2026-05-04 17:56 | 55.62616 | 12.63960 | 24 ft | 10 kts | 121° |
| 2026-05-04 17:57 | 55.62579 | 12.64060 | 25 ft | 9 kts | 124° |
| 2026-05-04 17:57 | 55.62544 | 12.64152 | 24 ft | 8 kts | 123° |
| 2026-05-04 17:57 | 55.62514 | 12.64234 | 24 ft | 8 kts | 123° |
| 2026-05-04 17:57 | 55.62485 | 12.64306 | 24 ft | 7 kts | 127° |
| 2026-05-04 17:58 | 55.62458 | 12.64368 | 24 ft | 6 kts | 128° |
| 2026-05-04 17:58 | 55.62434 | 12.64421 | 24 ft | 5 kts | 129° |
| 2026-05-04 17:58 | 55.62406 | 12.64455 | 24 ft | 8 kts | 170° |
| 2026-05-04 17:58 | 55.62341 | 12.64424 | 23 ft | 9 kts | 197° |
| 2026-05-04 17:59 | 55.62269 | 12.64391 | 22 ft | 12 kts | 195° |
| 2026-05-04 17:59 | 55.62191 | 12.64336 | 22 ft | 11 kts | 205° |
| 2026-05-04 17:59 | 55.62069 | 12.64234 | 24 ft | 9 kts | 206° |
| 2026-05-04 18:00 | 55.62019 | 12.64192 | 26 ft | 7 kts | 206° |
| 2026-05-04 18:00 | 55.61991 | 12.64167 | 24 ft | 6 kts | 206° |
| 2026-05-04 18:00 | 55.61945 | 12.64129 | 24 ft | 9 kts | 204° |
| 2026-05-04 18:00 | 55.61874 | 12.64075 | 24 ft | 9 kts | 195° |
| 2026-05-04 18:01 | 55.61803 | 12.64075 | 24 ft | 10 kts | 177° |
| 2026-05-04 18:01 | 55.61757 | 12.64081 | 24 ft | 9 kts | 175° |
| 2026-05-04 18:01 | 55.61690 | 12.64090 | 29 ft | 8 kts | 176° |
| 2026-05-04 18:02 | 55.61590 | 12.64015 | 27 ft | 20 kts | 220° |
| 2026-05-04 18:02 | 55.61281 | 12.63535 | 26 ft | 95 kts | 221° |
| 2026-05-04 18:02 | 55.60630 | 12.62530 | 27 ft | 150 kts | 221° |
| 2026-05-04 18:02 | 55.59813 | 12.61289 | 597 ft | 153 kts | 225° |
| 2026-05-04 18:03 | 55.59021 | 12.60041 | 1354 ft | 154 kts | 225° |
| 2026-05-04 18:03 | 55.58167 | 12.58697 | 1836 ft | 172 kts | 225° |
| 2026-05-04 18:03 | 55.57242 | 12.57238 | 2381 ft | 184 kts | 224° |
| 2026-05-04 18:03 | 55.56233 | 12.55730 | 2884 ft | 198 kts | 220° |
| 2026-05-04 18:04 | 55.55031 | 12.54251 | 3247 ft | 225 kts | 216° |
| 2026-05-04 18:04 | 55.53642 | 12.52649 | 3698 ft | 251 kts | 216° |
| 2026-05-04 18:04 | 55.50670 | 12.49062 | 5533 ft | 261 kts | 218° |
| 2026-05-04 18:05 | 55.49168 | 12.47225 | 6536 ft | 264 kts | 218° |
| 2026-05-04 18:05 | 55.47652 | 12.45386 | 7482 ft | 266 kts | 218° |
| 2026-05-04 18:05 | 55.46114 | 12.43526 | 8438 ft | 269 kts | 218° |
| 2026-05-04 18:05 | 55.44565 | 12.41650 | 9361 ft | 272 kts | 218° |
| 2026-05-04 18:06 | 55.41347 | 12.37728 | 10588 ft | 299 kts | 218° |
| 2026-05-04 18:06 | 55.39601 | 12.35590 | 10962 ft | 319 kts | 218° |
| 2026-05-04 18:06 | 55.37711 | 12.33284 | 11344 ft | 331 kts | 218° |
| 2026-05-04 18:07 | 55.35822 | 12.30991 | 11748 ft | 337 kts | 218° |
| 2026-05-04 18:07 | 55.33890 | 12.28647 | 12545 ft | 339 kts | 218° |
| 2026-05-04 18:07 | 55.31940 | 12.26283 | 13371 ft | 342 kts | 218° |
| 2026-05-04 18:07 | 55.29976 | 12.23905 | 14126 ft | 345 kts | 218° |
| 2026-05-04 18:08 | 55.27992 | 12.21506 | 14837 ft | 348 kts | 218° |
| 2026-05-04 18:08 | 55.25982 | 12.19084 | 15503 ft | 352 kts | 218° |
| 2026-05-04 18:08 | 55.23956 | 12.16649 | 16154 ft | 355 kts | 218° |
| 2026-05-04 18:08 | 55.21902 | 12.14183 | 16828 ft | 359 kts | 218° |
| 2026-05-04 18:09 | 55.17774 | 12.09140 | 18106 ft | 365 kts | 219° |
| 2026-05-04 18:09 | 55.13651 | 12.03823 | 19199 ft | 371 kts | 220° |
| 2026-05-04 18:10 | 55.11569 | 12.01122 | 19746 ft | 374 kts | 220° |
| 2026-05-04 18:10 | 55.09467 | 11.98406 | 20289 ft | 377 kts | 220° |
| 2026-05-04 18:10 | 55.07344 | 11.95680 | 20832 ft | 380 kts | 219° |
| 2026-05-04 18:10 | 55.05204 | 11.92950 | 21356 ft | 383 kts | 219° |
| 2026-05-04 18:11 | 55.03041 | 11.90208 | 21884 ft | 386 kts | 219° |
| 2026-05-04 18:11 | 55.00861 | 11.87449 | 22398 ft | 389 kts | 219° |
| 2026-05-04 18:11 | 54.98661 | 11.84668 | 22908 ft | 392 kts | 219° |
| 2026-05-04 18:11 | 54.96475 | 11.81905 | 23399 ft | 394 kts | 219° |
| 2026-05-04 18:12 | 54.94248 | 11.79093 | 23820 ft | 397 kts | 220° |
| 2026-05-04 18:12 | 54.92015 | 11.76278 | 24323 ft | 396 kts | 220° |
| 2026-05-04 18:12 | 54.89787 | 11.73471 | 24821 ft | 395 kts | 220° |
| 2026-05-04 18:12 | 54.87558 | 11.70659 | 25274 ft | 396 kts | 220° |
| 2026-05-04 18:13 | 54.85326 | 11.67852 | 25703 ft | 397 kts | 220° |
| 2026-05-04 18:13 | 54.83087 | 11.65043 | 26164 ft | 398 kts | 220° |
| 2026-05-04 18:13 | 54.78594 | 11.59419 | 27025 ft | 399 kts | 221° |
| 2026-05-04 18:14 | 54.76336 | 11.56597 | 27441 ft | 400 kts | 221° |
| 2026-05-04 18:14 | 54.74075 | 11.53775 | 27843 ft | 401 kts | 221° |
| 2026-05-04 18:14 | 54.71812 | 11.50949 | 28201 ft | 402 kts | 221° |
| 2026-05-04 18:15 | 54.67279 | 11.45311 | 29115 ft | 400 kts | 221° |
| 2026-05-04 18:15 | 54.62743 | 11.39694 | 29866 ft | 402 kts | 221° |
| 2026-05-04 18:15 | 54.60474 | 11.36891 | 30304 ft | 400 kts | 221° |
| 2026-05-04 18:16 | 54.58217 | 11.34105 | 30672 ft | 399 kts | 221° |
| 2026-05-04 18:16 | 54.55952 | 11.31309 | 30955 ft | 401 kts | 221° |
| 2026-05-04 18:16 | 54.53675 | 11.28510 | 31252 ft | 402 kts | 220° |
| 2026-05-04 18:17 | 54.49119 | 11.22958 | 31859 ft | 404 kts | 220° |
| 2026-05-04 18:17 | 54.46821 | 11.20170 | 32144 ft | 405 kts | 220° |
| 2026-05-04 18:17 | 54.42214 | 11.14589 | 32811 ft | 405 kts | 220° |
| 2026-05-04 18:18 | 54.39908 | 11.11800 | 33125 ft | 406 kts | 220° |
| 2026-05-04 18:18 | 54.37587 | 11.08999 | 33443 ft | 407 kts | 220° |
| 2026-05-04 18:18 | 54.35268 | 11.06205 | 33757 ft | 408 kts | 220° |
| 2026-05-04 18:18 | 54.32942 | 11.03406 | 34065 ft | 408 kts | 220° |
| 2026-05-04 18:19 | 54.28288 | 10.97809 | 34596 ft | 410 kts | 219° |
| 2026-05-04 18:19 | 54.25938 | 10.95021 | 34844 ft | 411 kts | 219° |
| 2026-05-04 18:19 | 54.23581 | 10.92242 | 35064 ft | 412 kts | 219° |
| 2026-05-04 18:20 | 54.21212 | 10.89457 | 35308 ft | 413 kts | 219° |
| 2026-05-04 18:20 | 54.18839 | 10.86673 | 35556 ft | 414 kts | 218° |
| 2026-05-04 18:20 | 54.16466 | 10.83893 | 35782 ft | 415 kts | 218° |
| 2026-05-04 18:20 | 54.14084 | 10.81104 | 36010 ft | 415 kts | 218° |
| 2026-05-04 18:21 | 54.11700 | 10.78306 | 36242 ft | 416 kts | 218° |
| 2026-05-04 18:21 | 54.09319 | 10.75506 | 36450 ft | 417 kts | 218° |
| 2026-05-04 18:21 | 54.06930 | 10.72699 | 36676 ft | 417 kts | 218° |
| 2026-05-04 18:21 | 54.04527 | 10.69888 | 36886 ft | 418 kts | 218° |
| 2026-05-04 18:22 | 54.02130 | 10.67089 | 37080 ft | 419 kts | 218° |
| 2026-05-04 18:22 | 53.99724 | 10.64288 | 37288 ft | 420 kts | 218° |
| 2026-05-04 18:22 | 53.97313 | 10.61484 | 37486 ft | 420 kts | 217° |
| 2026-05-04 18:22 | 53.94898 | 10.58674 | 37690 ft | 421 kts | 217° |
| 2026-05-04 18:23 | 53.92475 | 10.55860 | 37896 ft | 422 kts | 217° |
| 2026-05-04 18:23 | 53.90043 | 10.53041 | 37987 ft | 423 kts | 217° |
| 2026-05-04 18:23 | 53.85168 | 10.47404 | 37966 ft | 424 kts | 217° |
| 2026-05-04 18:24 | 53.80321 | 10.41818 | 37983 ft | 425 kts | 217° |
| 2026-05-04 18:24 | 53.75427 | 10.36196 | 37977 ft | 425 kts | 217° |
| 2026-05-04 18:25 | 53.70527 | 10.30576 | 37978 ft | 426 kts | 217° |
| 2026-05-04 18:25 | 53.65624 | 10.24964 | 37980 ft | 426 kts | 217° |
| 2026-05-04 18:26 | 53.60712 | 10.19365 | 37984 ft | 426 kts | 217° |
| 2026-05-04 18:26 | 53.55792 | 10.13772 | 37964 ft | 427 kts | 217° |
| 2026-05-04 18:27 | 53.50866 | 10.08193 | 37982 ft | 426 kts | 217° |
| 2026-05-04 18:27 | 53.45947 | 10.02639 | 38016 ft | 426 kts | 217° |
| 2026-05-04 18:28 | 53.41019 | 9.97088 | 37990 ft | 426 kts | 216° |
| 2026-05-04 18:28 | 53.36106 | 9.91567 | 37685 ft | 424 kts | 216° |
| 2026-05-04 18:29 | 53.33655 | 9.88824 | 37287 ft | 423 kts | 217° |
| 2026-05-04 18:29 | 53.31240 | 9.86125 | 36919 ft | 420 kts | 216° |
| 2026-05-04 18:29 | 53.28823 | 9.83424 | 36553 ft | 417 kts | 217° |
| 2026-05-04 18:29 | 53.26422 | 9.80741 | 36187 ft | 415 kts | 217° |
| 2026-05-04 18:30 | 53.21643 | 9.75409 | 35979 ft | 412 kts | 217° |
| 2026-05-04 18:30 | 53.19253 | 9.72749 | 35979 ft | 412 kts | 217° |
| 2026-05-04 18:31 | 53.14474 | 9.67442 | 35974 ft | 412 kts | 217° |
| 2026-05-04 18:31 | 53.09693 | 9.62146 | 35967 ft | 412 kts | 217° |
| 2026-05-04 18:32 | 53.04936 | 9.56903 | 35968 ft | 412 kts | 217° |
| 2026-05-04 18:32 | 53.00154 | 9.51642 | 35963 ft | 412 kts | 217° |
| 2026-05-04 18:33 | 52.95360 | 9.46382 | 35958 ft | 412 kts | 217° |
| 2026-05-04 18:33 | 52.90481 | 9.41369 | 35957 ft | 415 kts | 210° |
| 2026-05-04 18:34 | 52.85298 | 9.37130 | 35826 ft | 416 kts | 210° |
| 2026-05-04 18:34 | 52.82708 | 9.35010 | 35462 ft | 414 kts | 210° |
| 2026-05-04 18:34 | 52.80136 | 9.32899 | 35114 ft | 412 kts | 210° |
| 2026-05-04 18:34 | 52.77571 | 9.30793 | 34781 ft | 411 kts | 210° |
| 2026-05-04 18:35 | 52.75016 | 9.28701 | 34432 ft | 409 kts | 210° |
| 2026-05-04 18:35 | 52.72471 | 9.26624 | 34101 ft | 408 kts | 210° |
| 2026-05-04 18:35 | 52.69929 | 9.24552 | 33752 ft | 407 kts | 210° |
| 2026-05-04 18:35 | 52.67392 | 9.22485 | 33348 ft | 407 kts | 210° |
| 2026-05-04 18:36 | 52.64852 | 9.20416 | 32946 ft | 407 kts | 210° |
| 2026-05-04 18:36 | 52.62309 | 9.18349 | 32585 ft | 409 kts | 210° |
| 2026-05-04 18:36 | 52.59753 | 9.16277 | 32226 ft | 410 kts | 209° |
| 2026-05-04 18:36 | 52.57190 | 9.14202 | 31887 ft | 411 kts | 209° |
| 2026-05-04 18:37 | 52.54622 | 9.12126 | 31548 ft | 412 kts | 209° |
| 2026-05-04 18:37 | 52.52077 | 9.10071 | 31231 ft | 413 kts | 209° |
| 2026-05-04 18:37 | 52.49489 | 9.07984 | 30900 ft | 415 kts | 209° |
| 2026-05-04 18:37 | 52.46896 | 9.05897 | 30572 ft | 416 kts | 209° |
| 2026-05-04 18:38 | 52.44294 | 9.03805 | 30256 ft | 417 kts | 209° |
| 2026-05-04 18:38 | 52.41691 | 9.01711 | 29911 ft | 418 kts | 209° |
| 2026-05-04 18:38 | 52.39035 | 8.99581 | 29531 ft | 420 kts | 208° |
| 2026-05-04 18:38 | 52.36433 | 8.97495 | 29165 ft | 422 kts | 208° |
| 2026-05-04 18:39 | 52.33789 | 8.95376 | 28799 ft | 423 kts | 208° |
| 2026-05-04 18:39 | 52.31135 | 8.93253 | 28468 ft | 422 kts | 208° |
| 2026-05-04 18:39 | 52.28501 | 8.91148 | 28143 ft | 420 kts | 208° |
| 2026-05-04 18:39 | 52.25877 | 8.89058 | 27820 ft | 418 kts | 208° |
| 2026-05-04 18:40 | 52.23265 | 8.86982 | 27498 ft | 417 kts | 208° |
| 2026-05-04 18:40 | 52.20666 | 8.84919 | 27182 ft | 415 kts | 208° |
| 2026-05-04 18:40 | 52.18073 | 8.82864 | 26852 ft | 414 kts | 208° |
| 2026-05-04 18:40 | 52.15478 | 8.80809 | 26565 ft | 414 kts | 208° |
| 2026-05-04 18:41 | 52.12890 | 8.78762 | 26321 ft | 413 kts | 208° |
| 2026-05-04 18:41 | 52.10310 | 8.76722 | 26076 ft | 411 kts | 207° |
| 2026-05-04 18:41 | 52.07739 | 8.74693 | 25805 ft | 410 kts | 207° |
| 2026-05-04 18:41 | 52.05173 | 8.72672 | 25522 ft | 409 kts | 207° |
| 2026-05-04 18:42 | 52.02671 | 8.70497 | 25263 ft | 406 kts | 214° |
| 2026-05-04 18:42 | 52.00502 | 8.67590 | 25022 ft | 404 kts | 226° |
| 2026-05-04 18:42 | 51.98776 | 8.64007 | 24961 ft | 404 kts | 238° |
| 2026-05-04 18:42 | 51.97540 | 8.59901 | 24972 ft | 407 kts | 249° |
| 2026-05-04 18:43 | 51.96804 | 8.55452 | 24715 ft | 409 kts | 255° |
| 2026-05-04 18:43 | 51.96111 | 8.50987 | 24364 ft | 408 kts | 252° |
| 2026-05-04 18:43 | 51.95302 | 8.46649 | 24008 ft | 406 kts | 250° |
| 2026-05-04 18:43 | 51.94421 | 8.42294 | 23664 ft | 406 kts | 250° |
| 2026-05-04 18:44 | 51.93530 | 8.37962 | 23277 ft | 405 kts | 250° |
| 2026-05-04 18:44 | 51.93231 | 8.36506 | 23140 ft | 404 kts | 250° |
| 2026-05-04 18:44 | 51.91795 | 8.29316 | 22474 ft | 402 kts | 250° |
| 2026-05-04 18:44 | 51.90965 | 8.24991 | 22075 ft | 401 kts | 251° |
| 2026-05-04 18:45 | 51.90150 | 8.20676 | 21681 ft | 399 kts | 251° |
| 2026-05-04 18:45 | 51.89616 | 8.17840 | 21427 ft | 398 kts | 251° |
| 2026-05-04 18:45 | 51.88545 | 8.12168 | 20914 ft | 396 kts | 251° |
| 2026-05-04 18:45 | 51.87737 | 8.07904 | 20534 ft | 394 kts | 251° |
| 2026-05-04 18:46 | 51.86931 | 8.03674 | 20160 ft | 393 kts | 251° |
| 2026-05-04 18:46 | 51.86392 | 8.00876 | 19915 ft | 392 kts | 251° |
| 2026-05-04 18:46 | 51.85583 | 7.96674 | 19549 ft | 391 kts | 251° |
| 2026-05-04 18:46 | 51.84777 | 7.92487 | 19185 ft | 389 kts | 251° |
| 2026-05-04 18:47 | 51.83970 | 7.88314 | 18829 ft | 388 kts | 251° |
| 2026-05-04 18:47 | 51.83168 | 7.84160 | 18469 ft | 387 kts | 251° |
| 2026-05-04 18:47 | 51.82368 | 7.80016 | 18106 ft | 385 kts | 251° |
| 2026-05-04 18:47 | 51.81567 | 7.75886 | 17714 ft | 384 kts | 250° |
| 2026-05-04 18:48 | 51.80764 | 7.71772 | 17320 ft | 383 kts | 250° |
| 2026-05-04 18:48 | 51.79969 | 7.67709 | 16920 ft | 375 kts | 250° |
| 2026-05-04 18:48 | 51.79194 | 7.63734 | 16527 ft | 367 kts | 250° |
| 2026-05-04 18:48 | 51.78430 | 7.59835 | 16146 ft | 360 kts | 250° |
| 2026-05-04 18:49 | 51.77675 | 7.56008 | 15760 ft | 355 kts | 250° |
| 2026-05-04 18:49 | 51.76923 | 7.52211 | 15388 ft | 355 kts | 250° |
| 2026-05-04 18:49 | 51.76174 | 7.48429 | 15015 ft | 350 kts | 250° |
| 2026-05-04 18:49 | 51.75458 | 7.44785 | 14651 ft | 331 kts | 250° |
| 2026-05-04 18:50 | 51.74793 | 7.41386 | 14444 ft | 312 kts | 250° |
| 2026-05-04 18:50 | 51.74145 | 7.38095 | 14255 ft | 305 kts | 250° |
| 2026-05-04 18:50 | 51.73501 | 7.34850 | 14187 ft | 303 kts | 250° |
| 2026-05-04 18:50 | 51.72857 | 7.31614 | 14077 ft | 303 kts | 250° |
| 2026-05-04 18:51 | 51.72210 | 7.28388 | 13954 ft | 301 kts | 250° |
| 2026-05-04 18:51 | 51.71563 | 7.25164 | 13975 ft | 304 kts | 250° |
| 2026-05-04 18:51 | 51.70909 | 7.21916 | 13979 ft | 300 kts | 250° |
| 2026-05-04 18:51 | 51.70271 | 7.18782 | 13927 ft | 289 kts | 249° |
| 2026-05-04 18:52 | 51.69603 | 7.15794 | 13776 ft | 276 kts | 248° |
| 2026-05-04 18:52 | 51.68818 | 7.13039 | 13436 ft | 269 kts | 236° |
| 2026-05-04 18:52 | 51.67701 | 7.10647 | 13161 ft | 266 kts | 230° |
| 2026-05-04 18:52 | 51.66572 | 7.08296 | 12946 ft | 265 kts | 231° |
| 2026-05-04 18:53 | 51.65458 | 7.05939 | 12721 ft | 264 kts | 231° |
| 2026-05-04 18:53 | 51.64354 | 7.03585 | 12442 ft | 262 kts | 232° |
| 2026-05-04 18:53 | 51.63258 | 7.01246 | 12153 ft | 261 kts | 232° |
| 2026-05-04 18:53 | 51.62161 | 6.98911 | 11865 ft | 260 kts | 232° |
| 2026-05-04 18:54 | 51.61070 | 6.96593 | 11584 ft | 259 kts | 232° |
| 2026-05-04 18:54 | 51.59984 | 6.94286 | 11287 ft | 258 kts | 231° |
| 2026-05-04 18:54 | 51.58900 | 6.92006 | 11063 ft | 254 kts | 227° |
| 2026-05-04 18:54 | 51.57504 | 6.90371 | 10797 ft | 248 kts | 199° |
| 2026-05-04 18:55 | 51.55815 | 6.90048 | 10499 ft | 246 kts | 171° |
| 2026-05-04 18:55 | 51.52863 | 6.92725 | 9865 ft | 248 kts | 144° |
| 2026-05-04 18:55 | 51.51495 | 6.94405 | 9530 ft | 247 kts | 141° |
| 2026-05-04 18:56 | 51.50466 | 6.96580 | 9200 ft | 248 kts | 116° |
| 2026-05-04 18:56 | 51.49656 | 6.99002 | 8845 ft | 245 kts | 131° |
| 2026-05-04 18:56 | 51.48505 | 7.01004 | 8483 ft | 244 kts | 136° |
| 2026-05-04 18:56 | 51.47318 | 7.02947 | 8140 ft | 243 kts | 136° |
| 2026-05-04 18:57 | 51.46141 | 7.04869 | 7644 ft | 240 kts | 136° |
| 2026-05-04 18:57 | 51.44972 | 7.06787 | 7120 ft | 242 kts | 136° |
| 2026-05-04 18:57 | 51.43811 | 7.08704 | 6968 ft | 239 kts | 136° |
| 2026-05-04 18:57 | 51.42655 | 7.10617 | 6968 ft | 239 kts | 136° |
| 2026-05-04 18:58 | 51.41498 | 7.12533 | 6974 ft | 239 kts | 136° |
| 2026-05-04 18:58 | 51.40343 | 7.14454 | 6975 ft | 240 kts | 134° |
| 2026-05-04 18:58 | 51.39523 | 7.16773 | 6979 ft | 245 kts | 105° |
| 2026-05-04 18:58 | 51.39559 | 7.19492 | 6981 ft | 250 kts | 74° |
| 2026-05-04 18:59 | 51.40420 | 7.21908 | 6711 ft | 254 kts | 45° |
| 2026-05-04 18:59 | 51.41893 | 7.23355 | 6325 ft | 253 kts | 13° |
| 2026-05-04 18:59 | 51.43634 | 7.23408 | 5964 ft | 246 kts | 340° |
| 2026-05-04 18:59 | 51.45144 | 7.22288 | 5586 ft | 242 kts | 325° |
| 2026-05-04 19:00 | 51.46573 | 7.20878 | 5253 ft | 241 kts | 323° |
| 2026-05-04 19:00 | 51.47676 | 7.18976 | 5013 ft | 230 kts | 289° |
| 2026-05-04 19:00 | 51.47827 | 7.16569 | 5008 ft | 213 kts | 252° |
| 2026-05-04 19:00 | 51.47134 | 7.14521 | 5010 ft | 210 kts | 231° |
| 2026-05-04 19:01 | 51.46246 | 7.12655 | 5009 ft | 211 kts | 231° |
| 2026-05-04 19:01 | 51.45359 | 7.10785 | 5005 ft | 211 kts | 231° |
| 2026-05-04 19:01 | 51.44489 | 7.08936 | 4896 ft | 206 kts | 232° |
| 2026-05-04 19:01 | 51.43630 | 7.07109 | 4649 ft | 204 kts | 231° |
| 2026-05-04 19:02 | 51.42793 | 7.05331 | 4399 ft | 194 kts | 232° |
| 2026-05-04 19:02 | 51.42009 | 7.03664 | 4136 ft | 181 kts | 231° |
| 2026-05-04 19:02 | 51.41266 | 7.02089 | 3891 ft | 174 kts | 231° |
| 2026-05-04 19:02 | 51.40537 | 7.00543 | 3663 ft | 173 kts | 231° |
| 2026-05-04 19:03 | 51.39810 | 6.99002 | 3438 ft | 173 kts | 231° |
| 2026-05-04 19:03 | 51.39079 | 6.97455 | 3213 ft | 174 kts | 231° |
| 2026-05-04 19:03 | 51.38349 | 6.95910 | 2969 ft | 174 kts | 231° |
| 2026-05-04 19:03 | 51.37619 | 6.94365 | 2741 ft | 174 kts | 231° |
| 2026-05-04 19:04 | 51.36890 | 6.92824 | 2507 ft | 173 kts | 231° |
| 2026-05-04 19:04 | 51.36178 | 6.91319 | 2280 ft | 170 kts | 231° |
| 2026-05-04 19:04 | 51.35462 | 6.89807 | 2061 ft | 171 kts | 231° |
| 2026-05-04 19:04 | 51.34749 | 6.88302 | 1808 ft | 167 kts | 231° |
| 2026-05-04 19:05 | 51.34073 | 6.86873 | 1608 ft | 154 kts | 230° |
| 2026-05-04 19:05 | 51.33461 | 6.85580 | 1393 ft | 140 kts | 230° |
| 2026-05-04 19:05 | 51.32890 | 6.84379 | 1213 ft | 133 kts | 228° |
| 2026-05-04 19:05 | 51.32330 | 6.83200 | 1033 ft | 133 kts | 228° |
| 2026-05-04 19:06 | 51.31770 | 6.82022 | 847 ft | 134 kts | 230° |
| 2026-05-04 19:06 | 51.31209 | 6.80842 | 674 ft | 133 kts | 230° |
| 2026-05-04 19:06 | 51.30655 | 6.79673 | 507 ft | 131 kts | 229° |
| 2026-05-04 19:06 | 51.30104 | 6.78508 | 332 ft | 131 kts | 228° |
| 2026-05-04 19:07 | 51.29552 | 6.77363 | 167 ft | 129 kts | 230° |
| 2026-05-04 19:07 | 51.29045 | 6.76290 | 137 ft | 105 kts | 230° |
| 2026-05-04 19:07 | 51.28704 | 6.75581 | 134 ft | 56 kts | 232° |
| 2026-05-04 19:07 | 51.28568 | 6.75290 | 134 ft | 23 kts | 234° |
| 2026-05-04 19:08 | 51.28470 | 6.75088 | 133 ft | 24 kts | 232° |
| 2026-05-04 19:08 | 51.28369 | 6.74967 | 132 ft | 14 kts | 190° |
| 2026-05-04 19:08 | 51.28306 | 6.74982 | 134 ft | 8 kts | 158° |
| 2026-05-04 19:08 | 51.28258 | 6.75018 | 136 ft | 8 kts | 152° |
| 2026-05-04 19:09 | 51.28208 | 6.75057 | 136 ft | 9 kts | 154° |
| 2026-05-04 19:09 | 51.28147 | 6.75105 | 136 ft | 9 kts | 153° |
| 2026-05-04 19:09 | 51.28114 | 6.75133 | 136 ft | 3 kts | 153° |
| 2026-05-04 19:09 | 51.28094 | 6.75149 | 135 ft | 2 kts | 153° |
| 2026-05-04 19:10 | 51.28084 | 6.75157 | 135 ft | 2 kts | 153° |
| 2026-05-04 19:10 | 51.28066 | 6.75172 | 134 ft | 6 kts | 153° |
| 2026-05-04 19:10 | 51.28005 | 6.75221 | 127 ft | 13 kts | 153° |
| 2026-05-04 19:10 | 51.27946 | 6.75268 | 129 ft | 6 kts | 154° |
| 2026-05-04 19:11 | 51.27916 | 6.75290 | 133 ft | 3 kts | 154° |
| 2026-05-04 19:11 | 51.27907 | 6.75297 | 134 ft | 4 kts | 154° |
| 2026-05-04 19:11 | 51.27895 | 6.75306 | 134 ft | 0 kts | 154° |
| 2026-05-04 19:11 | 51.27872 | 6.75325 | 136 ft | 7 kts | 152° |
| 2026-05-04 19:12 | 51.27837 | 6.75388 | 136 ft | 7 kts | 98° |
| 2026-05-04 19:12 | 51.27895 | 6.75533 | 136 ft | 11 kts | 53° |
| 2026-05-04 19:12 | 51.27940 | 6.75627 | 137 ft | 13 kts | 52° |
| 2026-05-04 19:13 | 51.27995 | 6.75741 | 137 ft | 12 kts | 52° |
| 2026-05-04 19:13 | 51.28046 | 6.75846 | 137 ft | 11 kts | 52° |
| 2026-05-04 19:13 | 51.28092 | 6.75940 | 137 ft | 9 kts | 53° |
| 2026-05-04 19:13 | 51.28098 | 6.76013 | 137 ft | 6 kts | 108° |
| 2026-05-04 19:14 | 51.28071 | 6.76047 | 137 ft | 6 kts | 170° |
| 2026-05-04 19:14 | 51.28023 | 6.76047 | 137 ft | 8 kts | 180° |
| 2026-05-04 19:14 | 51.27957 | 6.76048 | 137 ft | 11 kts | 179° |
| 2026-05-04 19:14 | 51.27882 | 6.76048 | 137 ft | 9 kts | 179° |
| 2026-05-04 19:15 | 51.27854 | 6.76119 | 137 ft | 8 kts | 64° |
| 2026-05-04 19:15 | 51.27877 | 6.76162 | 137 ft | 4 kts | 54° |
| 2026-05-04 19:15 | 51.27891 | 6.76199 | 137 ft | 4 kts | 59° |
| 2026-05-04 19:15 | 51.27899 | 6.76222 | 137 ft | 2 kts | 60° |
| 2026-05-04 19:16 | 51.27907 | 6.76244 | 137 ft | 2 kts | 61° |
| 2026-05-04 19:16 | 51.27911 | 6.76257 | 137 ft | 0 kts | 62° |